Mojave, CA

6:09 PM PDT on September 01, 2014 (GMT -0700)
Edwards Air Force Base | Change Station
CLOSE
Current Station
Airport
Location: Edwards AFB,
Elevation: 2313 ft
Nearby Weather Stations

Elev 2313 ft 34.91 °N, 117.88 °W | Updated 11 minutes ago

Clear
Clear
98 °F
Feels Like 98 °F
N
18
Wind Variable Wind from SW
Gusts 24 mph

Today
High -- | Low -- °F
--% Chance of Precip.
Yesterday
High -- | Low -- °F
Precip. -- in
6:25 AM 7:19 PM
Waxing Crescent, 46% visible
Pressure 29.69 in
Visibility 10.0 miles
Clouds Clear
Dew Point 40 °F
Humidity 13%
Rainfall 0.00 in
Snow Depth Not available.
UV 1 out of 12
Pollen 9.10 out of 12
Ozone Moderate
Flu Activity Not available.
METAR KEDW 020058Z AUTO 23016G21KT 10SM CLR 37/04 A2977 RMK AO2 SLP054 T03690042

More Conditions Fewer Conditions

Pressure 29.69 in
Visibility 10.0 miles
Clouds Clear
Dew Point 40 °F
Humidity 13%
Rainfall 0.00 in
Snow Depth Not available.
UV 1 out of 12
Pollen 9.10 out of 12
Ozone Moderate
Flu Activity Not available.
METAR KEDW 020058Z AUTO 23016G21KT 10SM CLR 37/04 A2977 RMK AO2 SLP054 T03690042

More Conditions Fewer Conditions

10-Day Weather Forecast

Almanac

Astronomy

Sep. 01, 2014 Rise Set
Actual Time 6:25 AM PDT 7:19 PM PDT
Civil Twilight 5:59 AM PDT 7:45 PM PDT
Nautical Twilight 5:28 AM PDT 8:15 PM PDT
Astronomical Twilight 4:57 AM PDT 8:47 PM PDT
Moon 1:00 PM PDT (9/1) 11:40 PM PDT (9/1)
Length of Visible Light 13h 45m
Length of Day
12h 53m
Tomorrow will be 2m 6s shorter.
Waxing Crescent, 46% of the Moon is Illuminated
Today
Waxing Crescent
Sep 2
First Quarter
Sep 8
Full
Sep 15
Last Quarter
Sep 24
New

Today's Extremes

State Highs State Lows

Community

WunderPhotos

Upload Photos

1,749,476 photos uploaded!

Nearby

Air Quality

  Air Quality AQ Index Pollutant
Yesterday Unhealthy for Sensitive Groups
OZONE
Current Moderate
OZONE
Tuesday Good
PM10
Tuesday Moderate
OZONE
Tuesday Good
CO
Tuesday Good
NO2

Snow Depth

Station Depth Elevation
Leavitt Meadows 0 in 7200 ft
Monitor Pass 0 in 8350 ft
CSS Lab 0 in 6900 ft
Adin Mountain 0 in 6200 ft

Earthquake Activity

City Distance Mag. Time & Date
Malibu, California 103 miles 2.5 8:11 AM PDT
2014-08-30
Minimum magnitude displayed is 2.5.

Coastal Water Temperatures

Place Temperature
No Stations Reporting

Nearby Weather Stations